createdAt,value
2019-05-25T00:01:54.287Z,98.40
2019-05-25T00:03:59.820Z,98.60
2019-05-25T00:06:05.414Z,98.80
2019-05-25T00:08:10.961Z,98.40
2019-05-25T00:10:16.661Z,98.30
2019-05-25T00:12:22.269Z,98.70
2019-05-25T00:14:27.800Z,98.90
2019-05-25T00:16:33.917Z,98.80
2019-05-25T00:18:39.468Z,98.90
2019-05-25T00:20:45.106Z,99.20
2019-05-25T00:22:50.661Z,98.20
2019-05-25T00:24:56.176Z,98.00
2019-05-25T00:27:01.797Z,97.90
2019-05-25T00:29:07.424Z,97.60
2019-05-25T00:31:12.968Z,98.20
2019-05-25T00:33:18.589Z,98.50
2019-05-25T00:35:24.255Z,98.30
2019-05-25T00:37:29.774Z,98.10
2019-05-25T00:39:36.202Z,98.00
2019-05-25T00:41:41.768Z,98.30
2019-05-25T00:43:47.320Z,98.40
2019-05-25T00:45:52.861Z,98.50
2019-05-25T00:47:58.493Z,99.00
2019-05-25T00:50:06.547Z,98.70
2019-05-25T00:52:12.085Z,99.20
2019-05-25T00:54:27.495Z,99.40
2019-05-25T00:56:24.865Z,99.50
2019-05-25T00:58:30.407Z,99.10
2019-05-25T01:00:36.129Z,99.80
2019-05-25T01:02:41.677Z,99.20
2019-05-25T01:04:47.200Z,98.70
2019-05-25T01:06:52.740Z,98.80
2019-05-25T01:08:58.264Z,99.20
2019-05-25T01:11:03.827Z,99.90
2019-05-25T01:13:09.364Z,99.90
2019-05-25T01:15:17.040Z,99.90
2019-05-25T01:17:22.590Z,99.90
2019-05-25T01:19:28.137Z,99.90
2019-05-25T01:21:33.701Z,99.90
2019-05-25T01:23:39.372Z,99.90
2019-05-25T01:25:44.937Z,99.90
2019-05-25T01:27:50.503Z,99.90
2019-05-25T01:29:56.052Z,99.90
2019-05-25T01:32:01.588Z,99.90
2019-05-25T01:34:07.107Z,99.90
2019-05-25T01:36:12.632Z,99.90
2019-05-25T01:38:18.217Z,99.90
2019-05-25T01:40:23.919Z,99.90
2019-05-25T01:42:29.503Z,99.90
2019-05-25T01:44:35.079Z,99.90
2019-05-25T01:46:40.627Z,99.90
2019-05-25T01:48:46.169Z,99.90
2019-05-25T01:50:51.728Z,99.90
2019-05-25T01:52:57.267Z,99.90
2019-05-25T01:55:02.905Z,99.90
2019-05-25T01:57:08.474Z,99.70
2019-05-25T01:59:14.084Z,99.70
2019-05-25T02:01:19.638Z,99.60
2019-05-25T02:03:25.197Z,99.60
2019-05-25T02:05:30.741Z,99.60
2019-05-25T02:07:36.725Z,99.80
2019-05-25T02:09:42.354Z,99.80
2019-05-25T02:11:47.929Z,99.40
2019-05-25T02:13:53.457Z,99.30
2019-05-25T02:15:59.033Z,98.90
2019-05-25T02:18:04.724Z,98.80
2019-05-25T02:20:10.802Z,98.80
2019-05-25T02:22:16.344Z,99.00
2019-05-25T02:24:21.895Z,98.90
2019-05-25T02:26:27.448Z,98.90
2019-05-25T02:28:33.023Z,99.10
2019-05-25T02:30:38.563Z,99.20
2019-05-25T02:32:45.254Z,99.10
2019-05-25T02:34:50.897Z,99.50
2019-05-25T02:36:56.411Z,99.30
2019-05-25T02:39:04.966Z,99.10
2019-05-25T02:41:10.609Z,99.10
2019-05-25T02:43:16.084Z,99.40
2019-05-25T02:45:22.833Z,99.30
2019-05-25T02:47:28.414Z,99.20
2019-05-25T02:49:33.975Z,99.30
2019-05-25T02:51:39.589Z,99.20
2019-05-25T02:53:45.152Z,99.10
2019-05-25T02:55:50.692Z,99.20
2019-05-25T02:57:56.237Z,99.20
2019-05-25T03:00:01.856Z,99.30
2019-05-25T03:02:07.473Z,99.30
2019-05-25T03:04:13.051Z,99.30
2019-05-25T03:06:20.660Z,99.40
2019-05-25T03:08:26.201Z,99.40
2019-05-25T03:10:32.688Z,99.40
2019-05-25T03:12:38.771Z,99.50
2019-05-25T03:14:44.321Z,99.50
2019-05-25T03:16:49.917Z,99.50
2019-05-25T03:18:55.530Z,99.70
2019-05-25T03:21:01.057Z,99.70
2019-05-25T03:23:06.673Z,99.90
2019-05-25T03:25:12.727Z,99.70
2019-05-25T03:27:18.260Z,99.70
2019-05-25T03:29:25.425Z,99.70
2019-05-25T03:31:30.977Z,99.70
2019-05-25T03:33:36.518Z,99.90
2019-05-25T03:35:42.084Z,99.90
2019-05-25T03:37:47.617Z,99.90
2019-05-25T03:39:53.150Z,99.90
2019-05-25T03:41:58.684Z,99.90
2019-05-25T03:44:05.442Z,99.90
2019-05-25T03:46:10.991Z,99.80
2019-05-25T03:48:16.721Z,99.90
2019-05-25T03:50:22.408Z,99.90
2019-05-25T03:52:27.967Z,99.90
2019-05-25T03:54:33.494Z,99.90
2019-05-25T03:56:39.111Z,99.90
2019-05-25T03:58:44.629Z,99.90
2019-05-25T04:00:50.177Z,99.90
2019-05-25T04:02:55.737Z,99.90
2019-05-25T04:05:01.314Z,99.90
2019-05-25T04:07:06.872Z,99.70
2019-05-25T04:09:12.493Z,99.80
2019-05-25T04:11:18.025Z,99.90
2019-05-25T04:13:23.549Z,99.90
2019-05-25T04:15:29.176Z,99.90
2019-05-25T04:17:34.789Z,99.90
2019-05-25T04:19:40.329Z,99.90
2019-05-25T04:21:45.885Z,99.90
2019-05-25T04:23:51.441Z,99.70
2019-05-25T04:25:57.025Z,99.90
2019-05-25T04:28:03.716Z,99.80
2019-05-25T04:30:09.790Z,99.60
2019-05-25T04:32:15.332Z,99.40
2019-05-25T04:34:20.918Z,99.60
2019-05-25T04:36:26.461Z,99.40
2019-05-25T04:38:32.084Z,99.30
2019-05-25T04:40:37.697Z,99.40
2019-05-25T04:42:43.302Z,99.40
2019-05-25T04:44:48.923Z,98.90
2019-05-25T04:46:54.463Z,99.10
2019-05-25T04:49:00.008Z,99.40
2019-05-25T04:51:05.550Z,99.20
2019-05-25T04:53:11.123Z,99.10
2019-05-25T04:55:16.718Z,98.80
2019-05-25T04:57:22.293Z,99.10
2019-05-25T04:59:27.819Z,98.70
2019-05-25T05:01:33.344Z,98.80
2019-05-25T05:03:38.887Z,98.90
2019-05-25T05:05:44.492Z,98.30
2019-05-25T05:07:50.026Z,98.00
2019-05-25T05:10:02.783Z,98.10
2019-05-25T05:12:02.753Z,97.80
2019-05-25T05:14:08.309Z,98.00
2019-05-25T05:16:13.852Z,97.80
2019-05-25T05:18:19.394Z,98.00
2019-05-25T05:20:25.068Z,97.60
2019-05-25T05:22:30.600Z,97.70
2019-05-25T05:24:36.162Z,97.60
2019-05-25T05:26:55.295Z,97.60
2019-05-25T05:28:49.933Z,97.60
2019-05-25T05:30:55.561Z,97.00
2019-05-25T05:33:01.233Z,96.60
2019-05-25T05:35:08.018Z,96.60
2019-05-25T05:37:14.348Z,97.00
2019-05-25T05:39:20.322Z,96.70
2019-05-25T05:41:26.684Z,96.60
2019-05-25T05:43:33.147Z,96.70
2019-05-25T05:45:41.600Z,97.00
2019-05-25T05:47:49.277Z,97.30
2019-05-25T05:49:54.858Z,97.30
2019-05-25T05:52:02.466Z,96.20
2019-05-25T05:54:07.994Z,96.30
2019-05-25T05:56:13.524Z,95.80
2019-05-25T05:58:19.047Z,95.60
2019-05-25T06:00:24.724Z,95.50
2019-05-25T06:02:30.266Z,94.90
2019-05-25T06:04:35.799Z,95.30
2019-05-25T06:06:41.324Z,95.50
2019-05-25T06:08:46.936Z,94.90
2019-05-25T06:10:52.498Z,94.40
2019-05-25T06:12:58.030Z,93.90
2019-05-25T06:15:07.707Z,93.70
2019-05-25T06:17:13.234Z,93.80
2019-05-25T06:19:18.779Z,93.50
2019-05-25T06:21:24.308Z,93.40
2019-05-25T06:23:29.850Z,94.20
2019-05-25T06:25:35.433Z,94.00
2019-05-25T06:27:40.968Z,93.30
2019-05-25T06:29:46.524Z,92.80
2019-05-25T06:31:52.135Z,92.70
2019-05-25T06:33:58.733Z,93.10
2019-05-25T06:36:04.404Z,93.10
2019-05-25T06:38:09.929Z,92.40
2019-05-25T06:40:16.918Z,92.10
2019-05-25T06:42:22.458Z,92.30
2019-05-25T06:44:28.030Z,91.80
2019-05-25T06:46:33.586Z,91.70
2019-05-25T06:48:39.129Z,91.80
2019-05-25T06:50:44.673Z,91.70
2019-05-25T06:52:50.203Z,90.90
2019-05-25T06:54:55.777Z,90.40
2019-05-25T06:57:01.287Z,90.20
2019-05-25T06:59:06.891Z,90.50
2019-05-25T07:01:13.594Z,91.20
2019-05-25T07:03:19.196Z,90.40
2019-05-25T07:05:24.876Z,88.90
2019-05-25T07:07:30.434Z,89.80
2019-05-25T07:09:35.959Z,85.00
2019-05-25T07:11:41.492Z,89.00
2019-05-25T07:13:47.037Z,86.40
2019-05-25T07:15:52.582Z,82.30
2019-05-25T07:17:58.111Z,81.90
2019-05-25T07:20:08.152Z,83.20
2019-05-25T07:22:13.808Z,80.20
2019-05-25T07:24:19.323Z,84.90
2019-05-25T07:26:25.126Z,82.20
2019-05-25T07:28:30.723Z,79.70
2019-05-25T07:30:36.393Z,79.60
2019-05-25T07:32:42.269Z,77.90
2019-05-25T07:34:47.800Z,74.70
2019-05-25T07:36:53.391Z,73.70
2019-05-25T07:38:58.935Z,73.40
2019-05-25T07:41:04.626Z,74.50
2019-05-25T07:43:10.176Z,73.00
2019-05-25T07:45:15.982Z,72.10
2019-05-25T07:47:21.569Z,72.90
2019-05-25T07:49:27.157Z,76.70
2019-05-25T07:51:32.708Z,73.40
2019-05-25T07:53:38.237Z,69.90
2019-05-25T07:55:43.772Z,67.30
2019-05-25T07:57:49.311Z,69.30
2019-05-25T07:59:54.861Z,69.70
2019-05-25T08:02:00.426Z,65.40
2019-05-25T08:04:06.003Z,61.80
2019-05-25T08:06:11.522Z,59.60
2019-05-25T08:08:17.118Z,58.10
2019-05-25T08:10:22.641Z,56.60
2019-05-25T08:12:28.153Z,58.20
2019-05-25T08:14:33.687Z,60.00
2019-05-25T08:16:39.224Z,59.20
2019-05-25T08:18:44.788Z,59.00
2019-05-25T08:20:50.316Z,59.10
2019-05-25T08:22:55.853Z,57.80
2019-05-25T08:25:01.458Z,58.50
2019-05-25T08:27:07.046Z,62.70
2019-05-25T08:29:12.573Z,57.30
2019-05-25T08:31:18.127Z,58.60
2019-05-25T08:33:23.697Z,56.10
2019-05-25T08:35:29.234Z,52.10
2019-05-25T08:37:34.862Z,55.40
2019-05-25T08:39:40.370Z,58.20
2019-05-25T08:41:45.892Z,61.70
2019-05-25T08:43:52.510Z,56.60
2019-05-25T08:45:58.029Z,60.20
2019-05-25T08:48:03.697Z,61.40
2019-05-25T08:50:09.481Z,55.20
2019-05-25T08:52:15.001Z,55.00
2019-05-25T08:54:20.635Z,52.20
2019-05-25T08:56:26.172Z,55.00
2019-05-25T08:58:47.283Z,57.90
2019-05-25T09:00:38.847Z,53.10
2019-05-25T09:02:44.386Z,55.00
2019-05-25T09:04:49.966Z,55.90
2019-05-25T09:06:55.449Z,57.40
2019-05-25T09:09:00.982Z,56.00
2019-05-25T09:11:07.140Z,57.10
2019-05-25T09:13:12.737Z,55.00
2019-05-25T09:15:19.442Z,54.50
2019-05-25T09:17:24.980Z,56.50
2019-05-25T09:19:30.493Z,58.70
2019-05-25T09:21:36.023Z,56.30
2019-05-25T09:23:41.618Z,56.00
2019-05-25T09:25:47.149Z,56.10
2019-05-25T09:27:52.675Z,56.30
2019-05-25T09:29:58.184Z,57.90
2019-05-25T09:32:06.843Z,54.70
2019-05-25T09:34:10.895Z,56.40
2019-05-25T09:36:16.414Z,52.80
2019-05-25T09:38:22.005Z,56.00
2019-05-25T09:40:27.615Z,57.30
2019-05-25T09:42:33.152Z,56.90
2019-05-25T09:44:38.776Z,56.60
2019-05-25T09:46:44.294Z,60.20
2019-05-25T09:48:49.825Z,56.30
2019-05-25T09:50:55.356Z,58.50
2019-05-25T09:53:00.910Z,56.50
2019-05-25T09:55:08.138Z,52.70
2019-05-25T09:57:13.694Z,51.80
2019-05-25T09:59:20.569Z,51.70
2019-05-25T10:01:26.270Z,49.10
2019-05-25T10:03:31.881Z,49.10
2019-05-25T10:05:37.495Z,52.10
2019-05-25T10:07:43.088Z,52.70
2019-05-25T10:09:48.624Z,53.80
2019-05-25T10:11:54.182Z,53.70
2019-05-25T10:13:59.705Z,53.70
2019-05-25T10:16:05.298Z,56.50
2019-05-25T10:18:17.722Z,54.80
2019-05-25T10:20:24.382Z,53.90
2019-05-25T10:22:29.916Z,52.60
2019-05-25T10:24:35.524Z,58.30
2019-05-25T10:26:41.036Z,54.80
2019-05-25T10:28:46.559Z,52.00
2019-05-25T10:30:52.115Z,53.20
2019-05-25T10:32:57.628Z,54.20
2019-05-25T10:35:04.322Z,58.80
2019-05-25T10:37:09.856Z,58.10
2019-05-25T10:39:15.390Z,56.00
2019-05-25T10:41:20.963Z,54.30
2019-05-25T10:43:26.568Z,57.20
2019-05-25T10:45:32.177Z,54.10
2019-05-25T10:47:37.754Z,51.20
2019-05-25T10:49:43.307Z,54.10
2019-05-25T10:51:48.828Z,49.30
2019-05-25T10:53:54.349Z,52.20
2019-05-25T10:55:59.889Z,55.40
2019-05-25T10:58:05.468Z,54.50
2019-05-25T11:00:12.651Z,56.70
2019-05-25T11:02:18.175Z,55.20
2019-05-25T11:04:23.702Z,52.70
2019-05-25T11:06:29.197Z,48.70
2019-05-25T11:08:34.806Z,49.70
2019-05-25T11:10:40.405Z,53.30
2019-05-25T11:12:45.986Z,50.20
2019-05-25T11:14:52.582Z,47.60
2019-05-25T11:16:58.180Z,51.20
2019-05-25T11:19:03.810Z,50.70
2019-05-25T11:21:09.317Z,46.30
2019-05-25T11:23:14.840Z,51.20
2019-05-25T11:25:20.478Z,51.60
2019-05-25T11:27:26.021Z,52.70
2019-05-25T11:29:31.562Z,52.20
2019-05-25T11:31:37.193Z,53.50
2019-05-25T11:33:42.716Z,53.40
2019-05-25T11:35:48.257Z,51.80
2019-05-25T11:37:53.866Z,53.30
2019-05-25T11:39:59.465Z,58.00
2019-05-25T11:42:05.071Z,56.30
2019-05-25T11:44:10.604Z,49.80
2019-05-25T11:46:16.156Z,51.00
2019-05-25T11:48:21.688Z,55.70
2019-05-25T11:50:27.235Z,51.20
2019-05-25T11:52:32.834Z,55.10
2019-05-25T11:54:38.372Z,53.40
2019-05-25T11:56:43.916Z,58.30
2019-05-25T11:58:49.524Z,53.60
2019-05-25T12:00:55.215Z,51.90
2019-05-25T12:03:00.844Z,56.30
2019-05-25T12:05:08.204Z,54.10
2019-05-25T12:07:13.736Z,52.30
2019-05-25T12:09:19.283Z,55.60
2019-05-25T12:11:24.896Z,55.10
2019-05-25T12:13:32.142Z,56.00
2019-05-25T12:15:37.632Z,56.40
2019-05-25T12:17:43.179Z,53.10
2019-05-25T12:19:48.672Z,55.30
2019-05-25T12:21:54.789Z,52.50
2019-05-25T12:24:00.390Z,51.00
2019-05-25T12:26:06.000Z,52.50
2019-05-25T12:28:11.553Z,58.20
2019-05-25T12:30:17.944Z,55.90
2019-05-25T12:32:23.525Z,56.10
2019-05-25T12:34:29.076Z,55.10
2019-05-25T12:36:34.614Z,54.90
2019-05-25T12:38:40.427Z,55.70
2019-05-25T12:40:53.620Z,54.70
2019-05-25T12:42:53.219Z,51.10
2019-05-25T12:44:58.897Z,51.40
2019-05-25T12:47:04.724Z,49.70
2019-05-25T12:49:11.433Z,53.90
2019-05-25T12:51:17.831Z,55.00
2019-05-25T12:53:24.682Z,55.50
2019-05-25T12:55:30.211Z,55.20
2019-05-25T12:57:35.887Z,56.00
2019-05-25T12:59:41.502Z,52.00
2019-05-25T13:01:47.031Z,52.10
2019-05-25T13:03:52.632Z,56.00
2019-05-25T13:05:58.284Z,54.70
2019-05-25T13:08:03.962Z,55.80
2019-05-25T13:10:10.059Z,55.10
2019-05-25T13:12:15.605Z,56.80
2019-05-25T13:14:21.221Z,59.80
2019-05-25T13:16:26.753Z,60.60
2019-05-25T13:18:32.293Z,55.20
2019-05-25T13:20:37.852Z,55.50
2019-05-25T13:22:44.442Z,55.90
2019-05-25T13:24:50.183Z,54.40
2019-05-25T13:26:55.845Z,57.10
2019-05-25T13:29:01.541Z,59.10
2019-05-25T13:31:11.578Z,58.40
2019-05-25T13:33:14.317Z,57.70
2019-05-25T13:35:19.987Z,60.20
2019-05-25T13:37:25.580Z,57.90
2019-05-25T13:39:31.137Z,59.60
2019-05-25T13:41:36.738Z,61.10
2019-05-25T13:43:42.387Z,58.40
2019-05-25T13:45:47.909Z,58.80
2019-05-25T13:47:53.411Z,60.10
2019-05-25T13:49:58.962Z,63.20
2019-05-25T13:52:04.615Z,64.60
2019-05-25T13:54:10.143Z,62.10
2019-05-25T13:56:15.681Z,60.20
2019-05-25T13:58:21.190Z,63.90
2019-05-25T14:00:26.718Z,64.30
2019-05-25T14:02:32.246Z,59.40
2019-05-25T14:04:38.827Z,60.90
2019-05-25T14:06:44.350Z,60.90
2019-05-25T14:08:49.913Z,61.90
2019-05-25T14:10:55.416Z,60.60
2019-05-25T14:13:00.964Z,61.60
2019-05-25T14:15:08.594Z,66.00
2019-05-25T14:17:14.425Z,61.70
2019-05-25T14:19:19.964Z,60.80
2019-05-25T14:21:25.529Z,65.20
2019-05-25T14:23:31.052Z,66.00
2019-05-25T14:25:36.633Z,65.30
2019-05-25T14:27:42.226Z,68.00
2019-05-25T14:29:47.750Z,68.70
2019-05-25T14:31:53.340Z,64.70
2019-05-25T14:33:58.941Z,63.70
2019-05-25T14:36:04.563Z,63.80
2019-05-25T14:38:10.148Z,63.50
2019-05-25T14:40:15.916Z,65.60
2019-05-25T14:42:21.439Z,67.70
2019-05-25T14:44:27.037Z,71.10
2019-05-25T14:46:32.625Z,70.30
2019-05-25T14:48:38.138Z,73.40
2019-05-25T14:50:43.668Z,71.50
2019-05-25T14:52:49.192Z,70.80
2019-05-25T14:54:54.705Z,66.60
2019-05-25T14:57:00.212Z,70.30
2019-05-25T14:59:05.896Z,67.40
2019-05-25T15:01:11.421Z,71.30
2019-05-25T15:03:16.973Z,69.70
2019-05-25T15:05:22.580Z,70.90
2019-05-25T15:07:28.200Z,69.60
2019-05-25T15:09:33.699Z,70.30
2019-05-25T15:11:39.319Z,73.00
2019-05-25T15:13:44.831Z,72.90
2019-05-25T15:15:50.417Z,71.40
2019-05-25T15:17:55.938Z,73.70
2019-05-25T15:20:01.656Z,72.80
2019-05-25T15:22:07.392Z,73.30
2019-05-25T15:24:13.194Z,72.10
2019-05-25T15:26:19.748Z,71.60
2019-05-25T15:28:25.286Z,71.30
2019-05-25T15:30:30.951Z,72.90
2019-05-25T15:32:36.509Z,72.10
2019-05-25T15:34:42.084Z,72.50
2019-05-25T15:36:48.673Z,74.50
2019-05-25T15:38:54.368Z,76.70
2019-05-25T15:41:00.066Z,78.50
2019-05-25T15:43:05.651Z,81.00
2019-05-25T15:45:11.835Z,83.00
2019-05-25T15:47:17.534Z,83.50
2019-05-25T15:49:32.870Z,83.90
2019-05-25T15:51:30.426Z,84.80
2019-05-25T15:53:35.914Z,85.10
2019-05-25T15:55:41.512Z,85.90
2019-05-25T15:57:47.101Z,86.90
2019-05-25T15:59:52.657Z,88.00
2019-05-25T16:01:58.273Z,90.00
2019-05-25T16:04:04.010Z,89.90
2019-05-25T16:06:09.639Z,90.40
2019-05-25T16:08:15.524Z,90.60
2019-05-25T16:10:21.121Z,91.40
2019-05-25T16:12:26.749Z,91.30
2019-05-25T16:14:32.303Z,91.00
2019-05-25T16:16:37.844Z,91.10
2019-05-25T16:18:43.391Z,90.70
2019-05-25T16:20:49.978Z,90.80
2019-05-25T16:22:55.620Z,91.20
2019-05-25T16:25:01.155Z,91.00
2019-05-25T16:27:06.754Z,90.70
2019-05-25T16:29:12.365Z,90.60
2019-05-25T16:31:17.967Z,90.50
2019-05-25T16:33:23.505Z,91.50
2019-05-25T16:35:29.116Z,91.10
2019-05-25T16:37:34.896Z,90.50
2019-05-25T16:39:40.545Z,91.00
2019-05-25T16:41:46.496Z,90.50
2019-05-25T16:43:52.090Z,90.40
2019-05-25T16:45:57.602Z,90.80
2019-05-25T16:48:03.240Z,91.20
2019-05-25T16:50:13.872Z,90.60
2019-05-25T16:52:17.281Z,91.20
2019-05-25T16:54:22.846Z,90.00
2019-05-25T16:56:28.392Z,90.30
2019-05-25T16:58:34.077Z,90.40
2019-05-25T17:00:39.629Z,90.10
2019-05-25T17:02:45.194Z,90.50
2019-05-25T17:04:50.697Z,90.20
2019-05-25T17:06:56.360Z,90.00
2019-05-25T17:09:02.065Z,90.10
2019-05-25T17:11:07.928Z,90.40
2019-05-25T17:13:13.465Z,90.50
2019-05-25T17:15:19.140Z,90.00
2019-05-25T17:17:24.666Z,90.70
2019-05-25T17:19:30.210Z,90.20
2019-05-25T17:21:36.796Z,90.00
2019-05-25T17:23:42.326Z,90.30
2019-05-25T17:25:47.847Z,90.90
2019-05-25T17:27:53.504Z,91.00
2019-05-25T17:29:59.078Z,91.40
2019-05-25T17:32:05.159Z,90.80
2019-05-25T17:34:10.757Z,90.90
2019-05-25T17:36:16.401Z,91.70
2019-05-25T17:38:21.995Z,92.20
2019-05-25T17:40:27.707Z,91.20
2019-05-25T17:42:33.356Z,92.00
2019-05-25T17:44:38.893Z,92.20
2019-05-25T17:46:44.630Z,92.60
2019-05-25T17:48:50.194Z,92.80
2019-05-25T17:50:55.742Z,92.70
2019-05-25T17:53:01.271Z,92.70
2019-05-25T17:55:08.183Z,92.60
2019-05-25T17:57:13.736Z,93.00
2019-05-25T17:59:19.313Z,93.40
2019-05-25T18:01:26.009Z,94.30
2019-05-25T18:03:31.642Z,94.20
2019-05-25T18:05:37.207Z,93.90
2019-05-25T18:07:42.989Z,94.40
2019-05-25T18:09:48.540Z,94.60
2019-05-25T18:11:54.111Z,94.60
2019-05-25T18:13:59.752Z,94.60
2019-05-25T18:16:05.444Z,94.60
2019-05-25T18:18:11.123Z,94.60
2019-05-25T18:20:17.065Z,94.50
2019-05-25T18:22:22.692Z,94.90
2019-05-25T18:24:28.335Z,95.10
2019-05-25T18:26:34.977Z,95.30
2019-05-25T18:28:40.657Z,95.20
2019-05-25T18:30:46.359Z,95.50
2019-05-25T18:32:52.016Z,95.50
2019-05-25T18:34:57.571Z,96.00
2019-05-25T18:37:03.188Z,96.10
2019-05-25T18:39:08.846Z,96.30
2019-05-25T18:41:14.402Z,96.10
2019-05-25T18:43:20.092Z,96.60
2019-05-25T18:45:25.735Z,96.40
2019-05-25T18:47:31.307Z,96.50
2019-05-25T18:49:36.890Z,96.90
2019-05-25T18:51:42.483Z,96.40
2019-05-25T18:53:48.096Z,96.40
2019-05-25T18:55:53.720Z,96.60
2019-05-25T18:57:59.294Z,96.40
2019-05-25T19:00:07.470Z,96.60
2019-05-25T19:02:14.196Z,96.80
2019-05-25T19:04:19.776Z,96.50
2019-05-25T19:06:25.413Z,96.60
2019-05-25T19:08:31.055Z,96.50
2019-05-25T19:10:36.688Z,96.70
2019-05-25T19:12:42.411Z,96.70
2019-05-25T19:14:47.964Z,96.60
2019-05-25T19:16:53.588Z,96.30
2019-05-25T19:18:59.145Z,96.30
2019-05-25T19:21:04.751Z,96.30
2019-05-25T19:23:10.352Z,96.10
2019-05-25T19:25:17.672Z,96.30
2019-05-25T19:27:36.391Z,96.40
2019-05-25T19:29:47.484Z,96.50
2019-05-25T19:31:56.561Z,96.90
2019-05-25T19:34:08.046Z,97.20
2019-05-25T19:39:14.886Z,97.80
2019-05-25T19:41:26.910Z,97.90
2019-05-25T19:43:35.527Z,97.90
2019-05-25T19:45:47.029Z,97.80
2019-05-25T19:47:55.089Z,97.80
2019-05-25T19:50:10.330Z,97.90
2019-05-25T19:52:16.738Z,98.10
2019-05-25T19:54:27.400Z,97.90
2019-05-25T19:56:37.281Z,98.00
2019-05-25T19:58:56.612Z,98.00
2019-05-25T20:01:04.429Z,98.10
2019-05-25T20:03:23.066Z,98.30
2019-05-25T20:05:40.449Z,98.30
2019-05-25T20:07:46.081Z,98.50
2019-05-25T20:09:51.645Z,98.60
2019-05-25T20:11:57.212Z,98.60
2019-05-25T20:14:04.477Z,98.60
2019-05-25T20:16:11.664Z,98.70
2019-05-25T20:18:17.261Z,98.70
2019-05-25T20:20:22.926Z,98.60
2019-05-25T20:22:28.501Z,98.70
2019-05-25T20:24:34.040Z,98.70
2019-05-25T20:26:39.591Z,98.70
2019-05-25T20:28:45.127Z,98.90
2019-05-25T20:30:50.654Z,99.10
2019-05-25T20:32:56.302Z,99.30
2019-05-25T20:35:01.840Z,99.30
2019-05-25T20:37:07.542Z,99.10
2019-05-25T20:39:13.284Z,98.80
2019-05-25T20:41:18.808Z,99.00
2019-05-25T20:43:24.332Z,99.10
2019-05-25T20:45:42.435Z,99.10
2019-05-25T20:51:00.752Z,99.10
2019-05-25T20:53:11.380Z,99.10
2019-05-25T20:55:17.065Z,99.20
2019-05-25T20:57:22.748Z,99.30
2019-05-25T20:59:28.479Z,99.80
2019-05-25T21:01:34.036Z,99.50
2019-05-25T21:03:39.627Z,99.70
2019-05-25T21:05:50.125Z,99.70
2019-05-25T21:07:52.412Z,99.90
2019-05-25T21:09:57.973Z,99.90
2019-05-25T21:12:03.628Z,99.90
2019-05-25T21:14:09.170Z,99.90
2019-05-25T21:16:14.697Z,99.90
2019-05-25T21:18:20.331Z,99.90
2019-05-25T21:20:25.866Z,99.90
2019-05-25T21:22:31.464Z,99.90
2019-05-25T21:24:37.089Z,99.70
2019-05-25T21:26:42.765Z,99.50
2019-05-25T21:28:48.302Z,99.50
2019-05-25T21:30:53.853Z,99.60
2019-05-25T21:32:59.376Z,99.50
2019-05-25T21:35:10.885Z,99.30
2019-05-25T21:37:16.444Z,99.60
2019-05-25T21:39:22.044Z,99.90
2019-05-25T21:41:29.307Z,99.90
2019-05-25T21:43:34.960Z,99.90
2019-05-25T21:45:40.497Z,99.90
2019-05-25T21:47:46.020Z,99.90
2019-05-25T21:49:52.660Z,99.90
2019-05-25T21:51:58.212Z,99.90
2019-05-25T21:54:03.738Z,99.60
2019-05-25T21:56:09.280Z,99.70
2019-05-25T21:58:14.815Z,99.50
2019-05-25T22:00:22.443Z,99.50
2019-05-25T22:02:29.616Z,99.80
2019-05-25T22:04:36.295Z,99.90
2019-05-25T22:06:41.929Z,99.90
2019-05-25T22:08:47.479Z,99.90
2019-05-25T22:10:53.017Z,99.90
2019-05-25T22:12:58.551Z,99.90
2019-05-25T22:15:09.736Z,99.90
2019-05-25T22:17:15.336Z,99.90
2019-05-25T22:19:20.880Z,99.90
2019-05-25T22:21:26.560Z,99.90
2019-05-25T22:23:32.092Z,99.90
2019-05-25T22:25:37.692Z,99.90
2019-05-25T22:27:43.231Z,99.90
2019-05-25T22:29:48.783Z,99.90
2019-05-25T22:31:54.389Z,99.90
2019-05-25T22:33:59.919Z,99.90
2019-05-25T22:36:05.718Z,99.90
2019-05-25T22:38:11.267Z,99.90
2019-05-25T22:40:17.948Z,99.90
2019-05-25T22:42:23.538Z,99.90
2019-05-25T22:44:29.239Z,99.90
2019-05-25T22:46:34.897Z,99.90
2019-05-25T22:48:40.542Z,99.90
2019-05-25T22:50:46.086Z,99.90
2019-05-25T22:52:51.621Z,99.90
2019-05-25T22:54:57.192Z,99.90
2019-05-25T22:57:02.979Z,99.90
2019-05-25T22:59:08.560Z,99.90
2019-05-25T23:01:14.100Z,99.90
2019-05-25T23:03:19.721Z,99.90
2019-05-25T23:05:25.256Z,99.90
2019-05-25T23:07:30.784Z,99.90
2019-05-25T23:09:36.316Z,99.90
2019-05-25T23:11:41.927Z,99.90
2019-05-25T23:13:47.480Z,99.90
2019-05-25T23:15:53.033Z,99.90
2019-05-25T23:17:58.579Z,99.90
2019-05-25T23:20:06.354Z,99.90
2019-05-25T23:22:11.885Z,99.90
2019-05-25T23:24:17.515Z,99.90
2019-05-25T23:26:23.131Z,99.90
2019-05-25T23:28:28.595Z,99.90
2019-05-25T23:30:34.196Z,99.90
2019-05-25T23:32:39.841Z,99.90
2019-05-25T23:34:45.361Z,99.90
2019-05-25T23:36:50.909Z,99.90
2019-05-25T23:38:56.541Z,99.90
2019-05-25T23:41:03.056Z,99.90
2019-05-25T23:43:08.592Z,99.90
2019-05-25T23:45:15.668Z,99.90
2019-05-25T23:47:21.201Z,99.90
2019-05-25T23:49:26.728Z,99.90
2019-05-25T23:51:32.350Z,99.90
2019-05-25T23:53:37.889Z,99.90
2019-05-25T23:55:43.420Z,99.90
2019-05-25T23:57:48.960Z,99.90
2019-05-25T23:59:54.489Z,99.90
